Time;durP1;ratioP1;P1;durP2;ratioP2;P2;SDS_P1;SDS_P2;PMS_P1;PMS_P2;Temp;Humidity;BMP_temperature;BMP_pressure;BME280_temperature;BME280_humidity;BME280_pressure;Samples;Min_cycle;Max_cycle;Signal;HPM_P1;HPM_P2
2023/06/21 00:02:16;;;;;;;93.83;2.80;;;25.60;42.50;;;;;;4974516;28;20671;-71
2023/06/21 00:08:19;;;;;;;94.67;3.03;;;25.50;42.60;;;;;;4974658;28;20432;-70
2023/06/21 00:10:45;;;;;;;95.27;3.17;;;25.40;42.00;;;;;;4974581;28;20433;-71
2023/06/21 00:13:11;;;;;;;93.13;2.43;;;25.40;42.70;;;;;;4974506;28;20417;-70
2023/06/21 00:15:36;;;;;;;92.93;2.70;;;25.50;41.60;;;;;;4974009;28;20228;-71
2023/06/21 00:18:02;;;;;;;93.50;2.90;;;25.50;42.30;;;;;;4974283;28;20205;-72
2023/06/21 00:20:28;;;;;;;99.33;3.00;;;25.50;42.50;;;;;;4974260;28;20190;-71
2023/06/21 00:22:55;;;;;;;93.27;2.50;;;25.50;43.20;;;;;;4974094;28;20463;-71
2023/06/21 00:25:21;;;;;;;94.07;2.90;;;25.50;43.30;;;;;;4974115;28;20183;-70
2023/06/21 00:27:47;;;;;;;93.30;2.70;;;25.40;42.50;;;;;;4974481;28;20438;-71
2023/06/21 00:30:13;;;;;;;92.77;2.30;;;25.40;43.00;;;;;;4974122;28;21030;-71
2023/06/21 00:32:38;;;;;;;94.90;3.27;;;25.60;43.20;;;;;;4972056;28;20190;-71
2023/06/21 00:35:05;;;;;;;95.07;2.93;;;25.60;42.70;;;;;;4973563;28;20189;-71
2023/06/21 00:37:31;;;;;;;95.13;3.20;;;25.70;41.30;;;;;;4974072;28;20185;-72
2023/06/21 00:39:56;;;;;;;93.37;2.70;;;25.60;42.20;;;;;;4973835;28;20433;-71
2023/06/21 00:42:23;;;;;;;92.93;2.60;;;25.50;42.90;;;;;;4973935;28;20254;-71
2023/06/21 00:44:48;;;;;;;93.67;2.73;;;25.60;42.10;;;;;;4973437;28;20166;-71
2023/06/21 00:47:14;;;;;;;94.40;2.80;;;25.50;43.20;;;;;;4974118;28;20410;-71
2023/06/21 00:49:40;;;;;;;99.30;4.10;;;25.50;42.10;;;;;;4973603;28;20190;-71
2023/06/21 00:52:06;;;;;;;94.20;2.63;;;25.40;42.40;;;;;;4973848;28;20174;-71
2023/06/21 00:54:35;;;;;;;93.63;2.47;;;25.50;42.60;;;;;;4973426;28;20190;-71
2023/06/21 00:57:02;;;;;;;93.47;2.63;;;25.50;43.20;;;;;;4973505;28;20414;-71
2023/06/21 00:59:28;;;;;;;96.30;3.13;;;25.50;41.90;;;;;;4973472;28;20468;-71
2023/06/21 01:01:57;;;;;;;93.40;2.70;;;25.50;43.30;;;;;;4973587;28;20543;-71
2023/06/21 01:04:24;;;;;;;95.10;2.90;;;25.50;43.30;;;;;;4972329;28;20667;-70
2023/06/21 01:07:04;;;;;;;93.67;2.53;;;25.60;41.50;;;;;;4973431;28;20421;-71
2023/06/21 01:10:01;;;;;;;93.40;2.87;;;25.50;42.10;;;;;;4973198;28;20401;-72
2023/06/21 01:12:45;;;;;;;93.37;2.40;;;25.20;42.30;;;;;;4973546;28;21149;-71
2023/06/21 01:15:17;;;;;;;102.53;3.70;;;25.10;43.80;;;;;;4973239;28;20429;-70
2023/06/21 01:17:45;;;;;;;93.97;2.90;;;25.10;44.20;;;;;;4973389;28;20424;-71
2023/06/21 01:20:18;;;;;;;94.20;2.87;;;25.00;44.60;;;;;;4973287;28;20785;-70
2023/06/21 01:23:12;;;;;;;96.80;3.20;;;25.00;44.90;;;;;;4973201;28;20449;-71
2023/06/21 01:25:56;;;;;;;94.03;2.80;;;25.10;44.70;;;;;;4973074;28;20801;-70
2023/06/21 01:28:57;;;;;;;93.27;2.40;;;24.70;43.80;;;;;;4973306;28;20513;-70
2023/06/21 01:31:24;;;;;;;95.67;3.20;;;24.40;46.40;;;;;;4972969;28;20455;-71
2023/06/21 01:33:50;;;;;;;93.30;2.43;;;24.40;46.80;;;;;;4973260;28;20413;-70
2023/06/21 01:36:16;;;;;;;93.63;2.90;;;24.50;45.80;;;;;;4972946;28;20918;-71
2023/06/21 01:38:44;;;;;;;93.97;2.87;;;24.80;46.10;;;;;;4973147;28;20406;-71
2023/06/21 01:41:12;;;;;;;94.67;2.60;;;25.00;45.80;;;;;;4972830;28;20633;-71
2023/06/21 01:43:38;;;;;;;95.90;3.47;;;24.70;45.40;;;;;;4973381;28;20482;-71
2023/06/21 01:46:06;;;;;;;94.07;2.80;;;24.70;46.00;;;;;;4979306;28;20416;-71
2023/06/21 01:48:34;;;;;;;93.87;2.60;;;24.60;46.40;;;;;;4979583;28;20426;-71
2023/06/21 01:51:03;;;;;;;93.40;2.37;;;24.60;46.70;;;;;;4979339;28;20857;-71
2023/06/21 01:53:33;;;;;;;94.87;3.20;;;24.80;45.60;;;;;;4979274;28;20494;-72
2023/06/21 01:56:01;;;;;;;93.27;2.63;;;24.90;45.40;;;;;;4979060;28;20409;-71
2023/06/21 01:58:28;;;;;;;93.60;2.40;;;24.80;45.20;;;;;;4979490;28;20448;-72
2023/06/21 02:00:55;;;;;;;95.30;3.20;;;24.90;45.30;;;;;;4979284;28;20559;-71
2023/06/21 02:03:22;;;;;;;94.13;2.93;;;24.90;43.30;;;;;;4979134;28;20557;-71
2023/06/21 02:05:49;;;;;;;96.10;3.83;;;25.00;43.10;;;;;;4979007;28;20487;-71
2023/06/21 02:08:18;;;;;;;93.77;2.70;;;25.10;43.30;;;;;;4979255;28;20404;-72
2023/06/21 02:10:45;;;;;;;94.43;3.00;;;25.00;44.30;;;;;;4979435;28;20883;-70
2023/06/21 02:13:12;;;;;;;94.10;2.93;;;24.80;45.40;;;;;;4979182;28;20422;-71
2023/06/21 02:15:40;;;;;;;99.20;2.93;;;24.70;45.30;;;;;;4978975;28;20780;-71
2023/06/21 02:18:06;;;;;;;94.07;3.00;;;24.80;44.60;;;;;;4979377;28;20417;-71
2023/06/21 02:20:31;;;;;;;94.67;2.47;;;24.90;44.20;;;;;;4977814;28;20444;-71
2023/06/21 02:22:57;;;;;;;93.67;2.40;;;24.70;44.80;;;;;;4979097;28;20203;-71
2023/06/21 02:25:22;;;;;;;93.70;2.70;;;24.60;45.90;;;;;;4978915;28;20294;-71
2023/06/21 02:27:48;;;;;;;94.37;2.90;;;24.60;45.60;;;;;;4979034;28;20183;-70
2023/06/21 02:30:13;;;;;;;94.67;3.00;;;24.70;44.50;;;;;;4979021;28;20201;-71
2023/06/21 02:32:39;;;;;;;95.10;2.80;;;24.60;45.10;;;;;;4979235;28;20180;-70
2023/06/21 02:35:05;;;;;;;94.30;2.60;;;24.50;45.80;;;;;;4978851;28;20255;-70
2023/06/21 02:37:31;;;;;;;94.20;3.00;;;24.40;45.80;;;;;;4978953;28;20191;-70
2023/06/21 02:39:57;;;;;;;97.20;3.17;;;24.30;45.70;;;;;;4978907;28;20795;-71
2023/06/21 02:42:26;;;;;;;94.60;2.90;;;24.40;45.80;;;;;;4978970;28;20197;-70
2023/06/21 02:44:52;;;;;;;94.00;2.60;;;24.30;45.70;;;;;;4978824;28;20175;-71
2023/06/21 02:47:18;;;;;;;94.20;2.60;;;24.40;45.70;;;;;;4978729;28;20470;-71
2023/06/21 02:49:44;;;;;;;95.07;3.00;;;24.50;44.90;;;;;;4978828;28;20206;-71
2023/06/21 02:52:09;;;;;;;94.70;2.83;;;24.60;43.50;;;;;;4978795;28;20770;-70
2023/06/21 02:54:35;;;;;;;94.30;2.90;;;24.70;43.20;;;;;;4978837;28;20626;-70
2023/06/21 02:57:01;;;;;;;94.00;2.60;;;24.50;44.40;;;;;;4975493;28;20585;-71
2023/06/21 02:59:28;;;;;;;94.57;2.70;;;24.60;43.90;;;;;;4975850;28;20649;-71
2023/06/21 03:01:55;;;;;;;94.17;2.70;;;24.70;43.10;;;;;;4975504;28;20204;-71
2023/06/21 03:04:20;;;;;;;95.60;3.30;;;24.70;42.90;;;;;;4975796;28;20422;-71
2023/06/21 03:06:46;;;;;;;110.50;3.83;;;24.70;45.00;;;;;;4975311;28;20418;-72
2023/06/21 03:09:12;;;;;;;94.30;2.67;;;24.80;43.00;;;;;;4975794;28;20209;-71
2023/06/21 03:11:37;;;;;;;93.90;2.60;;;24.70;44.20;;;;;;4975490;28;20274;-71
2023/06/21 03:14:03;;;;;;;93.80;2.43;;;24.60;44.90;;;;;;4975637;28;20171;-71
2023/06/21 03:16:30;;;;;;;94.20;2.50;;;24.60;46.00;;;;;;4975029;28;20207;-71
2023/06/21 03:18:55;;;;;;;94.37;2.90;;;24.50;45.40;;;;;;4975599;28;20415;-70
2023/06/21 03:21:22;;;;;;;94.20;2.90;;;24.50;45.90;;;;;;4975162;28;20428;-70
2023/06/21 03:23:48;;;;;;;94.10;2.50;;;24.50;46.10;;;;;;4975401;28;20196;-70
2023/06/21 03:26:14;;;;;;;94.30;2.73;;;24.40;46.50;;;;;;4974977;28;20409;-71
2023/06/21 03:28:41;;;;;;;94.07;2.70;;;24.40;46.90;;;;;;4975441;28;20414;-71
2023/06/21 03:31:06;;;;;;;94.53;2.70;;;24.40;46.40;;;;;;4975232;28;20196;-70
2023/06/21 03:33:32;;;;;;;95.40;3.13;;;24.50;45.90;;;;;;4975285;28;20412;-70
2023/06/21 03:35:58;;;;;;;93.90;2.60;;;24.40;46.30;;;;;;4973435;28;20443;-71
2023/06/21 03:38:24;;;;;;;99.50;3.33;;;24.60;46.50;;;;;;4975309;28;20421;-71
2023/06/21 03:40:49;;;;;;;94.20;2.70;;;24.60;47.20;;;;;;4975126;28;20192;-71
2023/06/21 03:43:15;;;;;;;94.30;2.70;;;24.40;45.80;;;;;;4974962;28;20622;-72
2023/06/21 03:45:40;;;;;;;94.50;2.60;;;24.20;47.00;;;;;;4974871;28;20544;-70
2023/06/21 03:48:06;;;;;;;96.50;2.67;;;24.50;47.70;;;;;;4974970;28;20177;-71
2023/06/21 03:50:33;;;;;;;93.60;2.33;;;24.30;46.00;;;;;;5001422;23;20295;-74
2023/06/21 03:52:59;;;;;;;94.23;2.57;;;24.40;45.80;;;;;;4990977;28;20244;-75
2023/06/21 03:55:25;;;;;;;95.57;2.77;;;24.50;46.70;;;;;;4993840;28;20930;-74
2023/06/21 03:57:51;;;;;;;93.97;2.53;;;24.60;45.70;;;;;;4994217;28;20408;-75
2023/06/21 04:00:17;;;;;;;93.97;2.37;;;24.20;46.60;;;;;;4994229;28;20199;-75
2023/06/21 04:02:43;;;;;;;93.90;2.50;;;23.80;46.60;;;;;;4994025;28;20262;-75
2023/06/21 04:05:11;;;;;;;94.57;2.80;;;23.60;48.60;;;;;;4993899;28;20427;-75
2023/06/21 04:07:38;;;;;;;94.30;2.60;;;23.80;49.00;;;;;;4993016;28;20550;-74
2023/06/21 04:10:04;;;;;;;96.67;3.10;;;23.60;48.50;;;;;;4993804;28;20478;-74
2023/06/21 04:12:30;;;;;;;94.30;2.90;;;23.50;48.70;;;;;;4993915;28;20815;-75
2023/06/21 04:14:57;;;;;;;95.57;3.00;;;23.60;49.10;;;;;;4993807;28;20418;-74
2023/06/21 04:17:23;;;;;;;94.50;2.80;;;23.90;48.00;;;;;;4993753;28;20534;-74
2023/06/21 04:19:48;;;;;;;95.80;3.70;;;24.20;48.20;;;;;;4993704;28;20526;-74
2023/06/21 04:22:14;;;;;;;96.80;3.53;;;24.30;47.30;;;;;;4993415;28;20204;-74
2023/06/21 04:24:40;;;;;;;94.50;2.97;;;24.50;47.00;;;;;;4993612;28;20164;-74
2023/06/21 04:27:06;;;;;;;94.03;2.53;;;24.60;46.60;;;;;;4993635;28;20416;-75
2023/06/21 04:29:39;;;;;;;94.07;2.60;;;24.10;45.50;;;;;;4993777;28;20207;-75
2023/06/21 04:32:05;;;;;;;95.07;3.53;;;23.50;48.80;;;;;;4993555;28;20165;-74
2023/06/21 04:34:30;;;;;;;97.00;2.83;;;23.10;49.60;;;;;;4993210;28;20418;-72
2023/06/21 04:36:56;;;;;;;94.53;2.87;;;23.50;49.90;;;;;;4993434;28;20177;-75
2023/06/21 04:39:21;;;;;;;94.00;2.60;;;23.90;48.20;;;;;;4993494;28;20214;-74
2023/06/21 04:41:47;;;;;;;94.20;2.80;;;24.20;46.80;;;;;;4993279;28;20191;-75
2023/06/21 04:44:17;;;;;;;96.10;3.40;;;24.40;47.10;;;;;;4993095;28;20633;-74
2023/06/21 04:46:46;;;;;;;94.57;3.00;;;24.60;45.90;;;;;;4992968;28;20192;-74
2023/06/21 04:49:11;;;;;;;99.10;3.40;;;24.70;45.50;;;;;;4993563;28;20508;-74
2023/06/21 04:51:37;;;;;;;95.17;3.00;;;24.60;45.90;;;;;;4993046;28;20447;-74
2023/06/21 04:54:02;;;;;;;94.47;3.03;;;24.60;45.90;;;;;;4993116;28;20601;-73
2023/06/21 04:56:28;;;;;;;95.87;3.13;;;24.70;45.70;;;;;;4992560;28;20196;-74
2023/06/21 04:58:54;;;;;;;94.20;2.50;;;24.80;46.10;;;;;;4993013;28;20180;-75
2023/06/21 05:01:20;;;;;;;93.87;2.50;;;24.80;46.10;;;;;;4990676;28;20208;-74
2023/06/21 05:03:47;;;;;;;94.07;2.60;;;24.80;46.10;;;;;;4991105;28;20230;-74
2023/06/21 05:06:13;;;;;;;94.60;3.17;;;24.90;46.20;;;;;;4990610;28;20174;-74
2023/06/21 05:08:40;;;;;;;93.93;2.67;;;24.90;45.10;;;;;;4991077;28;20409;-74
2023/06/21 05:11:06;;;;;;;94.20;2.63;;;25.00;45.10;;;;;;4990996;28;20967;-75
2023/06/21 05:13:32;;;;;;;93.70;2.50;;;24.90;45.40;;;;;;4990844;28;20926;-74
2023/06/21 05:15:58;;;;;;;94.87;3.20;;;25.10;45.30;;;;;;4990883;28;20486;-75
2023/06/21 05:18:23;;;;;;;93.70;2.43;;;25.20;44.70;;;;;;4992938;28;20663;-75
2023/06/21 05:20:49;;;;;;;98.10;2.80;;;25.30;44.60;;;;;;4991500;28;20655;-74
2023/06/21 05:23:15;;;;;;;95.10;3.30;;;25.30;44.50;;;;;;4992531;28;20209;-75
2023/06/21 05:25:40;;;;;;;94.40;2.83;;;25.20;43.30;;;;;;4992547;28;20259;-75
2023/06/21 05:28:06;;;;;;;94.87;2.83;;;25.30;43.50;;;;;;4992781;28;20174;-75
2023/06/21 05:30:31;;;;;;;93.80;2.47;;;25.40;43.00;;;;;;4992618;28;20989;-74
2023/06/21 05:32:57;;;;;;;94.87;2.97;;;25.50;43.40;;;;;;4992796;28;20280;-75
2023/06/21 05:35:23;;;;;;;94.77;2.70;;;25.60;43.30;;;;;;4992303;28;20554;-75
2023/06/21 05:37:48;;;;;;;94.87;3.10;;;25.70;43.80;;;;;;4992909;28;20177;-75
2023/06/21 05:40:14;;;;;;;93.83;2.50;;;25.70;42.50;;;;;;4992583;28;20669;-74
2023/06/21 05:42:39;;;;;;;94.40;2.70;;;25.90;41.80;;;;;;4992465;28;20208;-73
2023/06/21 05:45:07;;;;;;;96.37;3.33;;;25.80;40.70;;;;;;4991913;28;20173;-75
2023/06/21 05:47:33;;;;;;;96.37;3.40;;;25.90;39.10;;;;;;4992524;28;20635;-75
2023/06/21 05:49:59;;;;;;;94.17;2.63;;;25.90;39.80;;;;;;4992654;28;20409;-75
2023/06/21 05:52:24;;;;;;;94.70;3.10;;;26.10;41.00;;;;;;4992347;28;20244;-74
2023/06/21 05:54:50;;;;;;;99.30;3.80;;;26.20;41.40;;;;;;4991051;28;20555;-75
2023/06/21 05:57:15;;;;;;;94.00;2.60;;;26.30;38.80;;;;;;4992571;28;20174;-75
2023/06/21 05:59:43;;;;;;;94.50;2.70;;;26.40;39.40;;;;;;4991032;28;20698;-75
2023/06/21 06:02:08;;;;;;;95.00;3.10;;;26.40;40.40;;;;;;4992347;28;20582;-74
2023/06/21 06:04:34;;;;;;;96.67;3.60;;;26.30;40.50;;;;;;4992031;28;20421;-75
2023/06/21 06:07:00;;;;;;;93.77;2.50;;;26.30;41.10;;;;;;4992450;28;20212;-75
2023/06/21 06:09:25;;;;;;;96.10;3.27;;;26.30;41.40;;;;;;4992402;28;20690;-75
2023/06/21 06:11:51;;;;;;;94.20;3.07;;;26.30;42.20;;;;;;4990981;28;20216;-75
2023/06/21 06:14:17;;;;;;;93.67;3.00;;;26.30;41.90;;;;;;4992182;28;20169;-74
2023/06/21 06:16:42;;;;;;;96.50;3.20;;;26.20;41.50;;;;;;4991730;28;20182;-74
2023/06/21 06:19:08;;;;;;;94.13;2.93;;;25.80;40.00;;;;;;4992290;28;20603;-74
2023/06/21 06:21:33;;;;;;;94.00;3.13;;;25.60;40.10;;;;;;4992099;28;20244;-75
2023/06/21 06:23:59;;;;;;;93.63;2.83;;;25.70;41.30;;;;;;4992085;28;20256;-75
2023/06/21 06:26:26;;;;;;;96.53;3.73;;;26.10;41.00;;;;;;4991734;28;20249;-73
2023/06/21 06:28:53;;;;;;;96.00;3.10;;;26.40;38.40;;;;;;4992030;28;20165;-75
2023/06/21 06:31:22;;;;;;;94.17;3.07;;;26.60;39.70;;;;;;4993347;28;20437;-75
2023/06/21 06:33:47;;;;;;;94.87;2.93;;;26.70;38.80;;;;;;4995754;28;20408;-75
2023/06/21 06:36:13;;;;;;;93.70;2.93;;;26.90;36.40;;;;;;4995779;28;20777;-73
2023/06/21 06:38:39;;;;;;;96.00;2.70;;;26.90;37.00;;;;;;4996315;28;20236;-75
2023/06/21 06:41:04;;;;;;;94.40;3.20;;;26.70;37.20;;;;;;4995904;28;20189;-75
2023/06/21 06:43:31;;;;;;;93.37;2.53;;;26.80;37.20;;;;;;4995852;28;20248;-75
2023/06/21 06:45:57;;;;;;;93.57;3.10;;;27.10;36.90;;;;;;4995396;28;20654;-76
2023/06/21 06:48:22;;;;;;;94.03;3.30;;;27.20;35.00;;;;;;4995502;28;20408;-75
2023/06/21 06:50:48;;;;;;;93.53;3.17;;;27.30;36.80;;;;;;4995488;28;20273;-75
2023/06/21 06:53:14;;;;;;;92.90;2.80;;;27.40;36.20;;;;;;4995604;28;20174;-75
2023/06/21 06:55:39;;;;;;;93.07;2.93;;;27.60;36.30;;;;;;4995138;28;20549;-73
2023/06/21 06:58:05;;;;;;;93.60;3.13;;;27.50;34.80;;;;;;4995307;28;20169;-75
2023/06/21 07:00:30;;;;;;;93.10;2.60;;;27.40;34.80;;;;;;4995433;28;20193;-75
2023/06/21 07:02:57;;;;;;;93.10;2.80;;;27.50;34.60;;;;;;4995198;28;20683;-75
2023/06/21 07:05:26;;;;;;;92.87;2.80;;;27.40;34.90;;;;;;4994847;28;20726;-76
2023/06/21 07:07:53;;;;;;;92.80;3.00;;;27.50;34.70;;;;;;4995175;28;20483;-74
2023/06/21 07:10:19;;;;;;;92.80;3.00;;;27.60;33.90;;;;;;4995299;28;20433;-75
2023/06/21 07:12:45;;;;;;;91.90;2.57;;;27.60;33.90;;;;;;4995079;28;20956;-75
2023/06/21 07:15:11;;;;;;;92.77;3.03;;;27.80;33.60;;;;;;4994703;28;20496;-75
2023/06/21 07:17:36;;;;;;;92.27;2.53;;;28.00;34.50;;;;;;4995062;28;20419;-75
2023/06/21 07:20:06;;;;;;;92.60;3.00;;;28.20;33.40;;;;;;4994988;28;20303;-74
2023/06/21 07:22:32;;;;;;;91.37;2.40;;;28.40;31.70;;;;;;4994971;28;20205;-75
2023/06/21 07:24:58;;;;;;;92.80;3.10;;;28.60;31.80;;;;;;4994808;28;20902;-75
2023/06/21 07:27:25;;;;;;;92.23;2.77;;;28.20;32.30;;;;;;4996343;28;20409;-75
2023/06/21 07:29:51;;;;;;;92.50;3.03;;;27.90;33.50;;;;;;4994619;28;20169;-75
2023/06/21 07:32:16;;;;;;;92.77;3.10;;;27.90;33.50;;;;;;4994806;28;21036;-75
2023/06/21 07:34:42;;;;;;;92.40;3.10;;;28.20;32.80;;;;;;4994532;28;20186;-75
2023/06/21 07:37:08;;;;;;;92.60;3.20;;;28.50;31.30;;;;;;4994511;28;20667;-73
2023/06/21 07:39:33;;;;;;;91.87;2.77;;;28.60;31.90;;;;;;4994653;28;20542;-73
2023/06/21 07:42:04;;;;;;;92.50;3.10;;;28.20;30.10;;;;;;4994299;28;20193;-73
2023/06/21 07:44:30;;;;;;;91.87;2.93;;;27.70;33.70;;;;;;4994475;28;20166;-73
2023/06/21 07:46:56;;;;;;;92.90;3.17;;;26.90;36.60;;;;;;4994530;28;20504;-73
2023/06/21 07:49:21;;;;;;;91.60;2.80;;;26.80;37.80;;;;;;4994247;28;20440;-73
2023/06/21 07:51:47;;;;;;;92.17;3.20;;;26.90;37.80;;;;;;4994391;28;20292;-73
2023/06/21 07:54:13;;;;;;;91.40;3.00;;;27.40;36.20;;;;;;4994150;28;20174;-74
2023/06/21 07:56:39;;;;;;;91.40;2.70;;;27.10;37.30;;;;;;4994350;28;20678;-73
2023/06/21 07:59:04;;;;;;;91.87;3.07;;;26.70;38.40;;;;;;4992764;28;20433;-74
2023/06/21 08:01:30;;;;;;;90.97;2.70;;;26.70;38.10;;;;;;4994308;28;20213;-73
2023/06/21 08:03:57;;;;;;;91.33;3.13;;;27.60;37.50;;;;;;4994496;28;20229;-74
2023/06/21 08:06:23;;;;;;;90.83;2.53;;;27.80;36.20;;;;;;4994046;28;20170;-74
2023/06/21 08:08:49;;;;;;;91.27;2.77;;;28.50;35.80;;;;;;4994148;28;20407;-75
2023/06/21 08:11:14;;;;;;;91.30;3.00;;;28.60;33.40;;;;;;4993981;28;20196;-74
2023/06/21 08:13:40;;;;;;;90.97;2.70;;;27.80;34.10;;;;;;4993994;28;20181;-74
2023/06/21 08:16:05;;;;;;;92.33;3.40;;;26.90;36.70;;;;;;4993936;28;20181;-73
2023/06/21 08:18:31;;;;;;;90.80;2.70;;;26.50;38.00;;;;;;4997935;28;20173;-76
2023/06/21 08:20:56;;;;;;;91.67;3.20;;;26.70;38.30;;;;;;4998210;28;20197;-75
2023/06/21 08:23:22;;;;;;;93.60;2.93;;;26.90;37.30;;;;;;4998051;28;20288;-74
2023/06/21 08:25:48;;;;;;;92.47;3.13;;;26.80;36.40;;;;;;4996604;28;20181;-73
2023/06/21 08:28:14;;;;;;;91.80;3.10;;;26.40;38.00;;;;;;4993677;28;20162;-74
2023/06/21 08:30:39;;;;;;;91.30;3.10;;;26.40;38.30;;;;;;4993563;28;20504;-73
2023/06/21 08:33:05;;;;;;;90.77;2.70;;;25.80;40.00;;;;;;4993743;28;20636;-74
2023/06/21 08:35:30;;;;;;;91.37;2.80;;;25.60;42.10;;;;;;4993373;28;20220;-74
2023/06/21 08:37:58;;;;;;;92.57;2.70;;;25.30;45.00;;;;;;4993243;28;20182;-74
2023/06/21 08:40:31;;;;;;;91.03;2.93;;;24.90;48.70;;;;;;4993622;28;20273;-75
2023/06/21 08:42:57;;;;;;;91.57;2.70;;;24.40;57.30;;;;;;4994468;28;20547;-74
2023/06/21 08:45:23;;;;;;;91.93;2.83;;;23.60;64.60;;;;;;4993702;28;20504;-74
2023/06/21 08:47:52;;;;;;;91.77;2.60;;;22.70;83.40;;;;;;4993360;28;20640;-74
2023/06/21 08:50:20;;;;;;;93.73;2.77;;;22.50;86.70;;;;;;4993285;28;20453;-74
2023/06/21 08:52:48;;;;;;;92.23;2.70;;;23.20;77.60;;;;;;4993651;28;20401;-75
2023/06/21 08:55:15;;;;;;;91.87;2.40;;;23.60;76.40;;;;;;4992361;28;20933;-75
2023/06/21 08:58:08;;;;;;;92.70;2.50;;;23.90;70.10;;;;;;4993017;28;20450;-75
2023/06/21 09:00:38;;;;;;;95.03;3.00;;;24.10;67.20;;;;;;4993097;28;20432;-75
2023/06/21 09:03:09;;;;;;;92.60;2.57;;;24.10;68.00;;;;;;4992961;28;20518;-75
2023/06/21 09:05:46;;;;;;;92.70;2.63;;;24.20;66.60;;;;;;4992827;28;20911;-74
2023/06/21 09:08:14;;;;;;;92.30;2.40;;;24.10;68.30;;;;;;4992936;28;20407;-75
2023/06/21 09:10:41;;;;;;;92.77;2.50;;;24.10;67.70;;;;;;4992929;28;20439;-75
2023/06/21 09:13:08;;;;;;;94.03;3.20;;;24.00;68.30;;;;;;4992922;28;20410;-75
2023/06/21 09:15:34;;;;;;;93.03;2.67;;;23.90;68.60;;;;;;4992539;28;20495;-75
2023/06/21 09:18:01;;;;;;;93.20;2.77;;;24.00;67.20;;;;;;4992993;28;20416;-75
2023/06/21 09:20:28;;;;;;;93.03;2.60;;;24.20;65.90;;;;;;4992707;28;20435;-75
2023/06/21 09:22:58;;;;;;;93.97;2.70;;;24.10;64.80;;;;;;4992559;28;20446;-75
2023/06/21 09:25:25;;;;;;;94.00;2.80;;;24.00;65.30;;;;;;4992576;28;20496;-75
2023/06/21 09:27:51;;;;;;;93.23;2.20;;;24.00;65.10;;;;;;4992697;28;20408;-75
2023/06/21 09:30:19;;;;;;;93.67;2.17;;;23.60;65.20;;;;;;4992699;28;20512;-74
2023/06/21 09:32:44;;;;;;;93.70;2.30;;;23.40;63.50;;;;;;4992579;28;20412;-75
2023/06/21 09:35:10;;;;;;;93.60;2.30;;;23.40;62.30;;;;;;4992374;28;20940;-75
2023/06/21 09:37:38;;;;;;;93.97;2.40;;;23.20;61.20;;;;;;4992746;28;20307;-75
2023/06/21 09:40:04;;;;;;;93.87;2.20;;;23.30;60.90;;;;;;4992568;28;20433;-75
2023/06/21 09:42:30;;;;;;;93.60;2.10;;;23.20;61.90;;;;;;4992320;28;20455;-74
2023/06/21 09:44:56;;;;;;;93.90;2.23;;;23.20;64.00;;;;;;4990877;28;20427;-74
2023/06/21 09:47:22;;;;;;;94.23;2.50;;;23.20;62.70;;;;;;4992576;28;20194;-73
2023/06/21 09:49:48;;;;;;;93.97;2.30;;;23.10;62.90;;;;;;4992437;28;20820;-75
2023/06/21 09:52:17;;;;;;;93.87;2.40;;;23.20;62.30;;;;;;4995657;23;20504;-70
2023/06/21 09:54:43;;;;;;;94.10;2.30;;;23.00;64.40;;;;;;4973527;28;20425;-70
2023/06/21 09:57:09;;;;;;;94.10;2.40;;;23.00;63.60;;;;;;4972615;28;20513;-70
2023/06/21 09:59:39;;;;;;;94.10;2.40;;;23.00;63.30;;;;;;4973022;28;20941;-70
2023/06/21 10:02:08;;;;;;;95.57;2.93;;;22.90;62.70;;;;;;4972720;28;20421;-70
2023/06/21 10:04:44;;;;;;;94.27;2.40;;;23.00;61.40;;;;;;4972859;28;20406;-69
2023/06/21 10:07:14;;;;;;;94.07;2.20;;;22.90;62.20;;;;;;4975325;28;20421;-69
2023/06/21 10:09:41;;;;;;;94.27;2.37;;;23.00;61.70;;;;;;4976827;28;20402;-69
2023/06/21 10:12:09;;;;;;;94.47;2.77;;;23.00;64.00;;;;;;4976609;28;20950;-70
2023/06/21 10:14:35;;;;;;;93.90;2.23;;;23.10;61.80;;;;;;4976806;28;20401;-70
2023/06/21 10:17:03;;;;;;;94.43;2.60;;;23.20;62.60;;;;;;4976441;28;20417;-70
2023/06/21 10:19:29;;;;;;;94.70;2.70;;;23.30;63.60;;;;;;4976732;28;20182;-70
2023/06/21 10:22:10;;;;;;;94.40;2.27;;;23.40;62.60;;;;;;4976411;28;20470;-70
2023/06/21 10:24:39;;;;;;;94.67;2.73;;;23.50;63.10;;;;;;4976425;28;20433;-70
2023/06/21 10:27:09;;;;;;;94.70;2.50;;;23.40;64.70;;;;;;4976488;28;20412;-73
2023/06/21 10:29:37;;;;;;;94.80;2.60;;;23.60;63.40;;;;;;4976257;28;20408;-70
2023/06/21 10:32:05;;;;;;;96.27;3.30;;;23.60;63.00;;;;;;4976295;28;20440;-71
2023/06/21 10:35:01;;;;;;;94.47;2.20;;;23.70;63.80;;;;;;4976119;28;20486;-75
2023/06/21 10:37:48;;;;;;;98.67;2.43;;;23.80;62.00;;;;;;4976199;28;20461;-70
2023/06/21 10:40:15;;;;;;;95.10;2.90;;;24.10;56.90;;;;;;4976133;28;20400;-69
2023/06/21 10:42:42;;;;;;;94.67;2.50;;;24.00;55.90;;;;;;4976097;28;20451;-72
2023/06/21 10:45:10;;;;;;;94.60;2.33;;;24.10;54.50;;;;;;4975850;28;20418;-70
2023/06/21 10:47:37;;;;;;;95.50;2.90;;;24.10;58.00;;;;;;4975967;28;20407;-69
2023/06/21 10:50:03;;;;;;;94.87;2.60;;;24.00;59.10;;;;;;4976123;28;20406;-73
2023/06/21 10:52:30;;;;;;;98.80;3.67;;;24.30;60.70;;;;;;4990677;28;20824;-69
2023/06/21 10:55:00;;;;;;;95.00;2.50;;;24.60;59.40;;;;;;4975863;28;20414;-69
2023/06/21 10:57:27;;;;;;;94.57;2.10;;;24.80;57.40;;;;;;4976557;28;20421;-69
2023/06/21 11:00:05;;;;;;;94.80;2.27;;;24.90;56.60;;;;;;4975809;28;20428;-69
2023/06/21 11:02:32;;;;;;;94.67;2.20;;;25.00;58.00;;;;;;4975597;28;20473;-69
2023/06/21 11:05:17;;;;;;;94.80;2.10;;;25.30;58.40;;;;;;4975622;28;20410;-70
2023/06/21 11:08:06;;;;;;;94.87;2.20;;;25.40;55.80;;;;;;4975777;28;20767;-73
2023/06/21 11:10:49;;;;;;;94.83;2.40;;;25.40;58.20;;;;;;4975624;28;20422;-69
2023/06/21 11:13:17;;;;;;;100.23;4.03;;;25.60;54.10;;;;;;4975556;28;20468;-69
2023/06/21 11:15:46;;;;;;;94.93;2.53;;;25.80;50.00;;;;;;4975424;28;20917;-69
2023/06/21 11:18:19;;;;;;;94.47;2.03;;;25.80;53.30;;;;;;4974866;28;20410;-69
2023/06/21 11:20:51;;;;;;;94.57;2.30;;;26.00;51.70;;;;;;4975461;28;20429;-69
2023/06/21 11:23:18;;;;;;;95.47;2.57;;;26.10;52.60;;;;;;4975411;28;20943;-69
2023/06/21 11:25:52;;;;;;;94.47;2.23;;;26.50;50.30;;;;;;4974965;28;20413;-70
2023/06/21 11:28:25;;;;;;;93.80;1.97;;;27.10;46.90;;;;;;4975391;28;20402;-71
2023/06/21 11:31:06;;;;;;;94.27;2.20;;;27.30;46.00;;;;;;4975563;28;20430;-70
2023/06/21 11:33:46;;;;;;;94.73;2.40;;;27.40;46.20;;;;;;4975228;28;20406;-73
2023/06/21 11:36:13;;;;;;;96.60;2.30;;;27.90;45.20;;;;;;4974738;28;20827;-72
2023/06/21 11:38:48;;;;;;;94.30;2.47;;;28.60;40.40;;;;;;4975245;28;20416;-71
2023/06/21 11:41:34;;;;;;;94.50;2.53;;;29.40;37.40;;;;;;4975027;28;20910;-73
2023/06/21 11:43:59;;;;;;;93.87;2.20;;;29.80;34.60;;;;;;4975105;28;20477;-70
2023/06/21 11:46:25;;;;;;;93.87;2.30;;;30.40;36.50;;;;;;4974952;28;20453;-70
2023/06/21 11:48:58;;;;;;;92.87;1.90;;;31.70;30.00;;;;;;4974946;28;20217;-70
2023/06/21 11:51:24;;;;;;;92.23;1.90;;;32.30;25.50;;;;;;4974887;28;20221;-70
2023/06/21 11:53:50;;;;;;;91.47;2.03;;;32.90;27.80;;;;;;4974790;28;20409;-71
2023/06/21 11:56:18;;;;;;;91.97;2.13;;;33.20;24.60;;;;;;4974792;28;20185;-71
2023/06/21 11:58:46;;;;;;;89.90;2.07;;;33.40;26.80;;;;;;4974616;28;20631;-70
2023/06/21 12:01:12;;;;;;;95.07;2.30;;;33.30;22.90;;;;;;4974979;28;20426;-70
2023/06/21 12:03:38;;;;;;;87.73;1.67;;;33.90;26.90;;;;;;4974745;28;20461;-70
2023/06/21 12:06:04;;;;;;;88.63;2.03;;;34.50;25.40;;;;;;4974465;28;20414;-71
2023/06/21 12:08:34;;;;;;;86.60;1.60;;;34.60;22.40;;;;;;4974812;28;20171;-72
2023/06/21 12:11:04;;;;;;;86.10;1.70;;;35.20;24.60;;;;;;4974406;28;20801;-71
2023/06/21 12:13:31;;;;;;;86.60;1.90;;;35.60;21.60;;;;;;4974402;28;20432;-71
2023/06/21 12:16:05;;;;;;;85.53;1.67;;;36.00;21.20;;;;;;4974297;28;20414;-73
2023/06/21 12:18:33;;;;;;;86.17;1.80;;;36.20;20.70;;;;;;4974487;28;20409;-70
2023/06/21 12:21:03;;;;;;;84.70;1.70;;;35.30;22.40;;;;;;4974197;28;20909;-70
2023/06/21 12:23:29;;;;;;;84.57;1.77;;;35.00;20.70;;;;;;4974262;28;20540;-72
2023/06/21 12:26:01;;;;;;;83.87;1.70;;;35.00;20.90;;;;;;4974192;28;20417;-73
2023/06/21 12:28:27;;;;;;;85.37;1.70;;;34.70;20.60;;;;;;4973551;28;20402;-70
2023/06/21 12:31:03;;;;;;;83.40;1.70;;;33.40;23.70;;;;;;4973976;28;20429;-70
2023/06/21 12:33:34;;;;;;;84.17;2.33;;;33.70;23.90;;;;;;4974200;28;20953;-70
2023/06/21 12:36:33;;;;;;;83.23;1.87;;;32.50;23.20;;;;;;4973970;28;20942;-70
2023/06/21 12:39:01;;;;;;;84.47;2.60;;;30.50;25.90;;;;;;4933112;29;20977;-70
2023/06/21 12:41:29;;;;;;;83.20;1.90;;;29.60;29.40;;;;;;4933352;29;20471;-69
2023/06/21 12:43:59;;;;;;;85.30;1.97;;;30.20;29.20;;;;;;4933135;29;20461;-70